Time;durP1;ratioP1;P1;durP2;ratioP2;P2;SDS_P1;SDS_P2;PMS_P1;PMS_P2;Temp;Humidity;BMP_temperature;BMP_pressure;BME280_temperature;BME280_humidity;BME280_pressure;Samples;Min_cycle;Max_cycle;Signal;HPM_P1;HPM_P2
2023/06/30 00:02:21;;;;;;;10.98;5.05;;;14.00;99.90;;;;;;5073196;28;20398;-73
2023/06/30 00:04:48;;;;;;;13.43;5.07;;;;;;;;;;5090506;28;20417;-73
2023/06/30 00:07:15;;;;;;;12.27;4.73;;;;;;;;;;5088871;28;20587;-73
2023/06/30 00:09:41;;;;;;;12.55;5.15;;;;;;;;;;5088702;28;20925;-73
2023/06/30 00:12:07;;;;;;;16.05;4.82;;;;;;;;;;5089008;28;20429;-73
2023/06/30 00:14:33;;;;;;;12.77;4.88;;;;;;;;;;5088475;28;20421;-73
2023/06/30 00:16:59;;;;;;;13.77;5.03;;;;;;;;;;5052938;28;20399;-73
2023/06/30 00:19:25;;;;;;;14.65;5.07;;;;;;;;;;5063303;28;20432;-74
2023/06/30 00:21:52;;;;;;;11.67;5.13;;;;;;;;;;5069704;28;20506;-73
2023/06/30 00:24:18;;;;;;;13.13;5.17;;;14.00;99.90;;;;;;5091241;28;20493;-73
2023/06/30 00:26:44;;;;;;;16.27;5.03;;;13.80;99.90;;;;;;5072999;28;20886;-73
2023/06/30 00:29:10;;;;;;;13.52;5.10;;;13.80;99.90;;;;;;5088896;28;20479;-73
2023/06/30 00:31:36;;;;;;;9.98;4.90;;;;;;;;;;5089486;28;20451;-73
2023/06/30 00:34:02;;;;;;;13.70;5.55;;;;;;;;;;5086571;28;20427;-74
2023/06/30 00:36:31;;;;;;;11.93;5.05;;;13.60;99.90;;;;;;5075290;28;20394;-73
2023/06/30 00:38:58;;;;;;;10.25;4.53;;;;;;;;;;5073835;28;20428;-73
2023/06/30 00:41:24;;;;;;;13.63;4.68;;;;;;;;;;5094561;28;20402;-73
2023/06/30 00:43:50;;;;;;;12.40;5.07;;;;;;;;;;5092115;28;20397;-73
2023/06/30 00:46:17;;;;;;;12.38;4.72;;;13.50;99.90;;;;;;5107132;27;20466;-73
2023/06/30 00:48:44;;;;;;;12.20;4.90;;;;;;;;;;5089215;28;20528;-73
2023/06/30 00:51:11;;;;;;;11.07;4.50;;;13.80;99.90;;;;;;5090074;28;20457;-73
2023/06/30 00:53:37;;;;;;;10.32;4.82;;;;;;;;;;5093350;28;20409;-73
2023/06/30 00:56:04;;;;;;;14.38;4.57;;;;;;;;;;5084976;28;20501;-74
2023/06/30 00:58:30;;;;;;;10.77;4.73;;;;;;;;;;5090144;28;20408;-73
2023/06/30 01:01:00;;;;;;;14.55;4.68;;;;;;;;;;5091394;28;20418;-73
2023/06/30 01:03:41;;;;;;;14.75;5.07;;;13.50;99.90;;;;;;5092058;28;20979;-73
2023/06/30 01:06:07;;;;;;;10.63;4.57;;;;;;;;;;5078812;28;20410;-73
2023/06/30 01:08:45;;;;;;;11.85;4.72;;;;;;;;;;5091152;28;20565;-73
2023/06/30 01:11:12;;;;;;;12.50;4.70;;;13.50;99.90;;;;;;5092420;28;20432;-73
2023/06/30 01:13:39;;;;;;;18.73;4.70;;;13.30;99.90;;;;;;5075025;28;20485;-74
2023/06/30 01:16:09;;;;;;;12.75;4.25;;;13.10;99.90;;;;;;5075062;28;20406;-73
2023/06/30 01:18:36;;;;;;;10.70;4.47;;;13.30;99.90;;;;;;5082995;28;20512;-73
2023/06/30 01:21:04;;;;;;;13.35;4.40;;;12.90;99.90;;;;;;5088459;28;20422;-73
2023/06/30 01:23:42;;;;;;;11.93;4.25;;;13.20;99.90;;;;;;5084785;28;20427;-73
2023/06/30 01:26:08;;;;;;;11.80;4.43;;;;;;;;;;5074476;28;20418;-73
2023/06/30 01:28:34;;;;;;;11.95;4.22;;;;;;;;;;5091668;28;20451;-73
2023/06/30 01:31:01;;;;;;;10.75;3.92;;;;;;;;;;5088462;28;20418;-73
2023/06/30 01:33:28;;;;;;;8.17;4.10;;;13.20;99.90;;;;;;5090853;28;20414;-73
2023/06/30 01:35:54;;;;;;;8.37;4.53;;;;;;;;;;5092293;28;20539;-73
2023/06/30 01:38:20;;;;;;;11.88;4.07;;;;;;;;;;5092088;28;20751;-72
2023/06/30 01:40:47;;;;;;;11.15;4.20;;;;;;;;;;5071829;28;20437;-73
2023/06/30 01:43:13;;;;;;;9.43;4.20;;;;;;;;;;5090215;28;20429;-72
2023/06/30 01:45:40;;;;;;;10.70;4.72;;;;;;;;;;5092026;28;20464;-72
2023/06/30 01:48:06;;;;;;;13.52;4.72;;;;;;;;;;5091573;28;20418;-73
2023/06/30 01:50:33;;;;;;;13.38;4.63;;;;;;;;;;5071635;28;20507;-73
2023/06/30 01:52:59;;;;;;;11.65;4.50;;;12.60;99.90;;;;;;5091006;28;20422;-73
2023/06/30 01:55:26;;;;;;;13.25;4.53;;;;;;;;;;5093304;28;20394;-73
2023/06/30 01:57:52;;;;;;;10.98;4.45;;;;;;;;;;5062915;28;20771;-73
2023/06/30 02:00:18;;;;;;;10.10;4.60;;;;;;;;;;5080564;28;20422;-73
2023/06/30 02:02:44;;;;;;;10.80;4.63;;;;;;;;;;5089238;28;20417;-73
2023/06/30 02:05:11;;;;;;;14.60;5.28;;;;;;;;;;5090364;28;20398;-73
2023/06/30 02:07:38;;;;;;;10.13;4.60;;;;;;;;;;5091102;28;20457;-73
2023/06/30 02:10:04;;;;;;;11.77;4.70;;;;;;;;;;5090177;28;20524;-72
2023/06/30 02:12:30;;;;;;;8.82;4.88;;;;;;;;;;5090013;28;20425;-72
2023/06/30 02:14:56;;;;;;;10.48;4.55;;;;;;;;;;5062528;28;20404;-72
2023/06/30 02:17:32;;;;;;;11.82;4.57;;;12.60;99.90;;;;;;5071275;28;20762;-73
2023/06/30 02:20:03;;;;;;;8.93;4.60;;;;;;;;;;5084096;28;20509;-73
2023/06/30 02:22:29;;;;;;;11.70;5.05;;;;;;;;;;5087496;28;20914;-72
2023/06/30 02:24:56;;;;;;;11.57;4.60;;;;;;;;;;5090632;28;20417;-72
2023/06/30 02:27:22;;;;;;;11.88;5.40;;;12.50;99.90;;;;;;5089665;28;20422;-72
2023/06/30 02:29:48;;;;;;;11.23;4.93;;;;;;;;;;5089400;28;20496;-72
2023/06/30 02:32:14;;;;;;;12.90;5.18;;;;;;;;;;5080815;28;20532;-72
2023/06/30 02:34:40;;;;;;;12.55;5.22;;;;;;;;;;5090326;28;20418;-73
2023/06/30 02:37:06;;;;;;;12.90;5.13;;;;;;;;;;5092383;28;20394;-72
2023/06/30 02:39:32;;;;;;;9.68;4.60;;;;;;;;;;5073155;28;20488;-72
2023/06/30 02:41:58;;;;;;;12.90;5.20;;;;;;;;;;5088813;28;20426;-72
2023/06/30 02:44:24;;;;;;;12.57;5.45;;;;;;;;;;5090961;28;20498;-73
2023/06/30 02:46:51;;;;;;;14.03;5.50;;;;;;;;;;5074115;28;20462;-72
2023/06/30 02:49:17;;;;;;;12.57;5.10;;;;;;;;;;5075168;28;20749;-72
2023/06/30 02:51:43;;;;;;;11.67;5.57;;;;;;;;;;5086490;28;20994;-72
2023/06/30 02:54:09;;;;;;;10.20;4.97;;;;;;;;;;5087634;28;20468;-72
2023/06/30 02:56:35;;;;;;;12.45;4.93;;;;;;;;;;5091139;28;20729;-72
2023/06/30 02:59:01;;;;;;;11.27;5.25;;;;;;;;;;5090280;28;20471;-72
2023/06/30 03:01:27;;;;;;;10.97;5.00;;;;;;;;;;5089290;28;20499;-73
2023/06/30 03:03:53;;;;;;;10.88;5.40;;;;;;;;;;5091109;28;20699;-72
2023/06/30 03:06:23;;;;;;;11.52;5.30;;;12.10;99.90;;;;;;5074552;28;20423;-72
2023/06/30 03:08:49;;;;;;;13.38;5.00;;;;;;;;;;5082230;28;20422;-72
2023/06/30 03:11:15;;;;;;;10.43;5.05;;;;;;;;;;5087963;28;20913;-72
2023/06/30 03:13:41;;;;;;;7.97;4.82;;;;;;;;;;5089802;28;20414;-72
2023/06/30 03:16:07;;;;;;;12.25;5.10;;;12.00;99.90;;;;;;5073020;28;20409;-72
2023/06/30 03:18:33;;;;;;;8.80;4.88;;;;;;;;;;5089255;28;20790;-72
2023/06/30 03:20:59;;;;;;;10.73;5.20;;;;;;;;;;5071559;28;20426;-72
2023/06/30 03:23:26;;;;;;;13.30;5.60;;;;;;;;;;5089032;28;20466;-73
2023/06/30 03:25:52;;;;;;;11.85;4.95;;;;;;;;;;5088475;28;20452;-73
2023/06/30 03:28:18;;;;;;;11.43;5.05;;;;;;;;;;5090344;28;20418;-73
2023/06/30 03:30:44;;;;;;;8.27;4.93;;;;;;;;;;5089313;28;20422;-73
2023/06/30 03:33:10;;;;;;;10.60;5.13;;;;;;;;;;5087750;28;20414;-72
2023/06/30 03:35:36;;;;;;;14.75;5.30;;;;;;;;;;5089282;28;20418;-72
2023/06/30 03:38:02;;;;;;;11.00;5.40;;;;;;;;;;5091881;28;20409;-72
2023/06/30 03:40:28;;;;;;;15.20;5.50;;;;;;;;;;5073979;28;20411;-72
2023/06/30 03:42:54;;;;;;;10.82;5.00;;;;;;;;;;5070362;28;20939;-72
2023/06/30 03:45:20;;;;;;;11.00;5.03;;;;;;;;;;5089223;28;20475;-72
2023/06/30 03:47:47;;;;;;;13.03;5.20;;;;;;;;;;5089481;28;20430;-72
2023/06/30 03:50:13;;;;;;;9.70;5.03;;;;;;;;;;5090513;28;20401;-72
2023/06/30 03:52:39;;;;;;;10.65;5.15;;;;;;;;;;5089355;28;20830;-72
2023/06/30 03:55:05;;;;;;;12.18;5.38;;;11.40;99.90;;;;;;5089050;28;20406;-72
2023/06/30 03:57:31;;;;;;;13.15;5.63;;;11.80;99.90;;;;;;5089095;28;20481;-72
2023/06/30 03:59:57;;;;;;;11.77;5.20;;;12.10;99.90;;;;;;5087062;28;20516;-72
2023/06/30 04:02:23;;;;;;;10.63;5.22;;;;;;;;;;5086459;28;20425;-72
2023/06/30 04:04:49;;;;;;;11.35;5.00;;;;;;;;;;5090203;28;20920;-72
2023/06/30 04:07:15;;;;;;;13.90;5.40;;;;;;;;;;5072489;28;20419;-72
2023/06/30 04:09:41;;;;;;;11.35;5.13;;;12.00;99.90;;;;;;5090298;28;20430;-72
2023/06/30 04:12:07;;;;;;;12.13;5.23;;;;;;;;;;5076445;28;20474;-72
2023/06/30 04:14:33;;;;;;;10.90;5.18;;;;;;;;;;5091212;28;20508;-72
2023/06/30 04:16:59;;;;;;;12.50;4.80;;;;;;;;;;5093405;28;20409;-72
2023/06/30 04:19:25;;;;;;;8.88;4.95;;;;;;;;;;5092672;28;20418;-72
2023/06/30 04:21:51;;;;;;;13.23;4.80;;;;;;;;;;5092567;28;20921;-72
2023/06/30 04:24:19;;;;;;;12.85;5.10;;;;;;;;;;5093886;28;20842;-72
2023/06/30 04:26:45;;;;;;;12.70;5.17;;;;;;;;;;5089357;28;20460;-72
2023/06/30 04:29:11;;;;;;;11.00;5.43;;;;;;;;;;5090976;28;20429;-72
2023/06/30 04:31:37;;;;;;;10.68;4.70;;;;;;;;;;5090885;28;20417;-72
2023/06/30 04:34:03;;;;;;;10.50;5.15;;;12.00;99.90;;;;;;5091913;28;20418;-72
2023/06/30 04:36:31;;;;;;;12.70;5.03;;;12.40;99.90;;;;;;5075659;28;20424;-72
2023/06/30 04:38:57;;;;;;;10.88;4.97;;;;;;;;;;5092698;28;20426;-72
2023/06/30 04:41:23;;;;;;;14.35;5.07;;;;;;;;;;5089324;28;20513;-72
2023/06/30 04:43:49;;;;;;;10.90;5.17;;;;;;;;;;5093508;28;20594;-72
2023/06/30 04:46:16;;;;;;;12.57;5.13;;;12.60;99.90;;;;;;5074869;28;20844;-72
2023/06/30 04:48:42;;;;;;;13.65;5.00;;;;;;;;;;5074539;28;20767;-72
2023/06/30 04:51:08;;;;;;;11.33;4.80;;;;;;;;;;5080299;28;20452;-72
2023/06/30 04:53:34;;;;;;;11.75;4.95;;;;;;;;;;5092315;28;20838;-72
2023/06/30 04:56:00;;;;;;;12.27;5.28;;;12.80;99.90;;;;;;5089450;28;20453;-72
2023/06/30 04:58:26;;;;;;;8.73;4.70;;;;;;;;;;5093825;28;20441;-72
2023/06/30 05:00:55;;;;;;;12.40;4.95;;;;;;;;;;5075303;28;20507;-72
2023/06/30 05:03:21;;;;;;;11.43;4.95;;;;;;;;;;5074162;28;20419;-72
2023/06/30 05:05:47;;;;;;;9.90;4.53;;;;;;;;;;5059997;28;20590;-72
2023/06/30 05:08:14;;;;;;;12.75;4.70;;;;;;;;;;5090955;28;20426;-72
2023/06/30 05:10:40;;;;;;;9.98;4.63;;;;;;;;;;5092699;28;20398;-72
2023/06/30 05:13:06;;;;;;;9.73;4.55;;;;;;;;;;5090863;28;20423;-72
2023/06/30 05:15:32;;;;;;;15.45;4.70;;;;;;;;;;5092637;28;20400;-73
2023/06/30 05:17:58;;;;;;;11.68;4.50;;;13.40;99.90;;;;;;5091633;28;20439;-73
2023/06/30 05:20:24;;;;;;;10.65;4.80;;;;;;;;;;5091699;28;21079;-73
2023/06/30 05:22:49;;;;;;;12.07;4.93;;;13.80;99.90;;;;;;5089124;28;20493;-73
2023/06/30 05:25:15;;;;;;;10.87;4.80;;;13.20;99.90;;;;;;5091898;28;20577;-73
2023/06/30 05:27:41;;;;;;;12.23;4.80;;;;;;;;;;5075688;28;20402;-73
2023/06/30 05:30:08;;;;;;;8.57;4.72;;;;;;;;;;5093736;28;20430;-73
2023/06/30 05:32:35;;;;;;;11.57;4.47;;;;;;;;;;5090634;28;20920;-73
2023/06/30 05:35:01;;;;;;;10.63;4.20;;;;;;;;;;5089327;28;20747;-73
2023/06/30 05:37:27;;;;;;;12.73;4.75;;;;;;;;;;5055644;28;20748;-73
2023/06/30 05:39:53;;;;;;;9.75;4.15;;;13.80;99.90;;;;;;5091869;28;20402;-73
2023/06/30 05:42:19;;;;;;;9.83;4.20;;;;;;;;;;5089922;28;22082;-73
2023/06/30 05:44:45;;;;;;;9.32;3.85;;;;;;;;;;5073006;28;20417;-72
2023/06/30 05:47:11;;;;;;;10.88;4.07;;;;;;;;;;5090145;28;20413;-73
2023/06/30 05:49:40;;;;;;;10.40;4.10;;;;;;;;;;5088229;28;20901;-74
2023/06/30 05:52:07;;;;;;;10.52;3.58;;;14.70;99.90;;;;;;5071422;28;20417;-73
2023/06/30 05:54:33;;;;;;;7.43;3.53;;;;;;;;;;5084882;28;20426;-73
2023/06/30 05:56:59;;;;;;;10.40;3.70;;;;;;;;;;5076376;28;20957;-73
2023/06/30 05:59:27;;;;;;;7.97;3.40;;;;;;;;;;5065630;28;20406;-73
2023/06/30 06:01:54;;;;;;;8.55;3.30;;;15.30;99.90;;;;;;5085452;28;20432;-73
2023/06/30 06:04:20;;;;;;;9.45;3.38;;;;;;;;;;5089943;28;20993;-73
2023/06/30 06:06:46;;;;;;;6.97;3.30;;;15.50;99.90;;;;;;5081642;28;20426;-73
2023/06/30 06:09:12;;;;;;;8.55;3.00;;;;;;;;;;5090475;28;20445;-74
2023/06/30 06:11:39;;;;;;;10.10;2.97;;;;;;;;;;5084035;28;20471;-73
2023/06/30 06:14:05;;;;;;;5.88;2.42;;;;;;;;;;5075173;28;20411;-71
2023/06/30 06:16:31;;;;;;;6.50;2.33;;;;;;;;;;5079089;28;20410;-72
2023/06/30 06:18:57;;;;;;;10.20;2.77;;;;;;;;;;5083791;28;20430;-73
2023/06/30 06:21:27;;;;;;;10.55;2.55;;;;;;;;;;5083039;28;21029;-74
2023/06/30 06:23:53;;;;;;;7.13;2.10;;;;;;;;;;5087311;28;20718;-74
2023/06/30 06:26:20;;;;;;;6.97;2.05;;;;;;;;;;5087227;28;20501;-73
2023/06/30 06:28:45;;;;;;;4.87;2.23;;;16.50;99.90;;;;;;5084894;28;20427;-74
2023/06/30 06:31:11;;;;;;;6.20;2.23;;;;;;;;;;5077969;28;20471;-74
2023/06/30 06:33:37;;;;;;;10.43;2.40;;;16.50;99.90;;;;;;5088258;28;20410;-74
2023/06/30 06:36:03;;;;;;;8.03;2.57;;;;;;;;;;5090242;28;20489;-74
2023/06/30 06:38:29;;;;;;;8.32;2.75;;;;;;;;;;5063372;28;20429;-74
2023/06/30 06:40:55;;;;;;;6.38;2.72;;;;;;;;;;5086328;28;21055;-73
2023/06/30 06:43:26;;;;;;;6.72;2.25;;;;;;;;;;5080372;28;20767;-73
2023/06/30 06:45:52;;;;;;;8.13;2.47;;;;;;;;;;5085261;28;20414;-74
2023/06/30 06:48:18;;;;;;;7.28;2.55;;;;;;;;;;5089771;28;20869;-73
2023/06/30 06:50:45;;;;;;;9.48;2.38;;;17.10;99.90;;;;;;5087912;28;20414;-73
2023/06/30 06:53:18;;;;;;;8.23;2.38;;;17.10;99.90;;;;;;5063276;28;20925;-73
2023/06/30 06:55:45;;;;;;;5.68;1.95;;;;;;;;;;5083965;28;20417;-73
2023/06/30 06:58:11;;;;;;;10.02;2.40;;;;;;;;;;5088445;28;20804;-74
2023/06/30 07:00:37;;;;;;;8.73;1.92;;;;;;;;;;5087549;28;20418;-74
2023/06/30 07:03:03;;;;;;;6.50;1.87;;;;;;;;;;5067796;28;20518;-74
2023/06/30 07:05:31;;;;;;;8.07;2.20;;;;;;;;;;5083176;28;20413;-74
2023/06/30 07:07:57;;;;;;;8.40;1.70;;;;;;;;;;5084831;28;20934;-74
2023/06/30 07:10:23;;;;;;;5.45;1.67;;;;;;;;;;5083031;28;20505;-73
2023/06/30 07:12:49;;;;;;;6.67;1.50;;;;;;;;;;5086004;28;20929;-72
2023/06/30 07:15:16;;;;;;;5.95;1.90;;;;;;;;;;5089805;28;20422;-73
2023/06/30 07:17:42;;;;;;;6.35;1.77;;;;;;;;;;5085946;28;20750;-74
2023/06/30 07:20:08;;;;;;;5.13;1.73;;;;;;;;;;5058833;28;20815;-73
2023/06/30 07:22:34;;;;;;;6.10;1.90;;;;;;;;;;5081201;28;20942;-74
2023/06/30 07:25:02;;;;;;;6.00;1.73;;;;;;;;;;5078073;28;20959;-74
2023/06/30 07:27:28;;;;;;;5.38;1.80;;;;;;;;;;5085551;28;20415;-75
2023/06/30 07:29:54;;;;;;;5.72;2.13;;;;;;;;;;5081968;28;20453;-75
2023/06/30 07:32:20;;;;;;;5.35;2.00;;;;;;;;;;5088581;28;20774;-75
2023/06/30 07:34:46;;;;;;;8.07;2.00;;;;;;;;;;5068091;28;20426;-74
2023/06/30 07:37:12;;;;;;;4.90;1.73;;;;;;;;;;5083882;28;20422;-75
2023/06/30 07:39:38;;;;;;;4.53;1.73;;;17.50;99.90;;;;;;5083482;28;20937;-76
2023/06/30 07:42:04;;;;;;;7.10;1.95;;;;;;;;;;5067538;28;20421;-77
2023/06/30 07:44:31;;;;;;;5.10;2.00;;;;;;;;;;5065317;28;20913;-75
2023/06/30 07:46:58;;;;;;;6.25;2.20;;;;;;;;;;5088850;28;20409;-75
2023/06/30 07:49:25;;;;;;;6.35;1.92;;;;;;;;;;5073433;28;20456;-74
2023/06/30 07:51:52;;;;;;;5.03;1.80;;;;;;;;;;5092167;28;20417;-74
2023/06/30 07:54:19;;;;;;;5.90;1.85;;;;;;;;;;5088615;28;20424;-77
2023/06/30 07:56:47;;;;;;;4.95;1.80;;;;;;;;;;5087564;28;20782;-76
2023/06/30 07:59:13;;;;;;;4.97;2.17;;;;;;;;;;5089778;28;20417;-76
2023/06/30 08:01:39;;;;;;;6.10;1.90;;;;;;;;;;5084714;28;20796;-78
2023/06/30 08:04:05;;;;;;;4.18;1.60;;;;;;;;;;5086879;28;20777;-77
2023/06/30 08:06:31;;;;;;;3.92;1.45;;;;;;;;;;5093265;28;20780;-77
2023/06/30 08:08:58;;;;;;;4.53;1.70;;;;;;;;;;5087462;28;20845;-78
2023/06/30 08:11:25;;;;;;;4.95;1.60;;;;;;;;;;5071843;28;20501;-75
2023/06/30 08:13:51;;;;;;;5.32;1.63;;;;;;;;;;5069964;28;20872;-76
2023/06/30 08:16:18;;;;;;;6.20;2.08;;;;;;;;;;5087646;28;20420;-76
2023/06/30 08:18:44;;;;;;;6.20;1.98;;;;;;;;;;5087713;28;20434;-73
2023/06/30 08:21:10;;;;;;;9.05;1.90;;;;;;;;;;5091361;28;20418;-74
2023/06/30 08:23:36;;;;;;;5.78;2.00;;;;;;;;;;5089961;28;20928;-74
2023/06/30 08:26:02;;;;;;;5.63;1.70;;;;;;;;;;5091961;28;20417;-74
2023/06/30 08:28:27;;;;;;;3.70;1.70;;;19.00;99.90;;;;;;5086042;28;20773;-74
2023/06/30 08:30:54;;;;;;;4.10;1.70;;;;;;;;;;5076788;28;20422;-74
2023/06/30 08:33:26;;;;;;;4.93;1.83;;;19.90;99.90;;;;;;5075133;28;20422;-73
2023/06/30 08:35:51;;;;;;;5.72;2.00;;;19.60;99.90;;;;;;5089662;28;20826;-73
2023/06/30 08:38:17;;;;;;;6.30;1.75;;;;;;;;;;5091715;28;20493;-73
2023/06/30 08:40:46;;;;;;;5.45;1.75;;;;;;;;;;5087460;28;20428;-73
2023/06/30 08:43:13;;;;;;;6.72;1.90;;;;;;;;;;5084524;28;20909;-73
2023/06/30 08:45:48;;;;;;;7.03;1.77;;;19.20;99.90;;;;;;5081493;28;20437;-73
2023/06/30 08:48:16;;;;;;;5.13;1.65;;;;;;;;;;5088892;28;20428;-73
2023/06/30 08:50:42;;;;;;;4.78;1.80;;;;;;;;;;5089529;28;20491;-73
2023/06/30 08:53:08;;;;;;;4.13;1.70;;;;;;;;;;5086627;28;20429;-74
2023/06/30 08:55:35;;;;;;;4.07;1.60;;;;;;;;;;5088747;28;20936;-73
2023/06/30 08:58:00;;;;;;;6.00;1.40;;;20.10;99.90;;;;;;5083525;28;20930;-73
2023/06/30 09:00:26;;;;;;;4.15;1.33;;;;;;;;;;5085401;28;20429;-73
2023/06/30 09:02:55;;;;;;;6.00;1.52;;;;;;;;;;5088791;28;20506;-74
2023/06/30 09:05:23;;;;;;;4.82;1.70;;;;;;;;;;5087925;28;20479;-73
2023/06/30 09:07:55;;;;;;;5.97;1.80;;;20.70;99.90;;;;;;5085904;28;20430;-74
2023/06/30 09:10:28;;;;;;;6.50;2.20;;;20.40;99.90;;;;;;5086347;28;20509;-75
2023/06/30 09:12:55;;;;;;;4.85;1.80;;;;;;;;;;5089762;28;20418;-75
2023/06/30 09:15:21;;;;;;;9.03;2.00;;;;;;;;;;5083717;28;20421;-76
2023/06/30 09:17:48;;;;;;;3.63;1.42;;;;;;;;;;5082351;28;21688;-75
2023/06/30 09:20:14;;;;;;;5.10;1.43;;;;;;;;;;5087432;28;20425;-75
2023/06/30 09:22:40;;;;;;;3.53;1.40;;;;;;;;;;5086806;28;20421;-75
2023/06/30 09:25:27;;;;;;;5.75;1.80;;;21.30;99.90;;;;;;5089735;28;20837;-75
2023/06/30 09:27:53;;;;;;;5.57;1.73;;;;;;;;;;5082421;28;20459;-75
2023/06/30 09:30:19;;;;;;;7.47;1.73;;;;;;;;;;5084495;28;20414;-76
2023/06/30 09:32:45;;;;;;;6.10;1.67;;;21.00;99.90;;;;;;5090742;28;20445;-75
2023/06/30 09:35:20;;;;;;;6.50;1.67;;;;;;;;;;5085120;28;22272;-76
2023/06/30 09:37:46;;;;;;;5.88;1.65;;;;;;;;;;5084381;28;20421;-76
2023/06/30 09:40:13;;;;;;;4.17;1.50;;;;;;;;;;5085526;28;20410;-75
2023/06/30 09:42:39;;;;;;;5.00;1.50;;;;;;;;;;5087762;28;20425;-74
2023/06/30 09:45:05;;;;;;;6.47;1.90;;;21.20;99.90;;;;;;5078540;28;20410;-74
2023/06/30 09:47:31;;;;;;;6.22;1.70;;;;;;;;;;5079390;28;20506;-72
2023/06/30 09:49:58;;;;;;;5.67;1.40;;;;;;;;;;5079194;28;20497;-73
2023/06/30 09:52:25;;;;;;;5.13;1.63;;;;;;;;;;5066125;28;20423;-73
2023/06/30 09:54:50;;;;;;;4.10;1.50;;;21.20;99.90;;;;;;5087250;28;20478;-73
2023/06/30 09:57:17;;;;;;;5.20;1.57;;;;;;;;;;5073137;28;20812;-74
2023/06/30 09:59:43;;;;;;;4.82;1.50;;;;;;;;;;5071642;28;20491;-74
2023/06/30 10:02:10;;;;;;;4.23;1.43;;;;;;;;;;5084797;28;20452;-75
2023/06/30 10:04:36;;;;;;;5.13;1.50;;;;;;;;;;5067793;28;20808;-74
2023/06/30 10:07:03;;;;;;;5.63;1.40;;;;;;;;;;5089253;28;20512;-74
2023/06/30 10:09:29;;;;;;;5.32;1.55;;;;;;;;;;5102262;28;20478;-74
2023/06/30 10:11:59;;;;;;;5.00;1.77;;;21.50;99.90;;;;;;5097549;28;20480;-74
2023/06/30 10:14:32;;;;;;;5.43;1.60;;;21.20;99.90;;;;;;5085983;28;20417;-74
2023/06/30 10:17:00;;;;;;;7.15;1.70;;;21.40;99.90;;;;;;5103442;27;20418;-75
2023/06/30 10:19:28;;;;;;;3.72;1.73;;;;;;;;;;5085227;28;20935;-75
2023/06/30 10:21:55;;;;;;;4.57;1.70;;;;;;;;;;5077129;28;20476;-75
2023/06/30 10:24:26;;;;;;;7.07;1.77;;;22.30;98.60;;;;;;5085253;28;20429;-75
2023/06/30 10:26:54;;;;;;;4.70;1.77;;;22.60;98.60;;;;;;5086373;28;20422;-75
2023/06/30 10:29:20;;;;;;;4.97;1.70;;;22.30;98.20;;;;;;5081481;28;20482;-76
2023/06/30 10:31:47;;;;;;;5.43;1.92;;;;;;;;;;5081285;28;20418;-75
2023/06/30 10:34:13;;;;;;;4.20;1.90;;;21.70;99.40;;;;;;5089404;28;20452;-74
2023/06/30 10:36:40;;;;;;;6.50;1.63;;;;;;;;;;5086545;28;20826;-74
2023/06/30 10:39:06;;;;;;;3.97;1.70;;;21.60;99.90;;;;;;5084558;28;20430;-74
2023/06/30 10:41:48;;;;;;;3.10;1.42;;;21.30;99.90;;;;;;5081952;28;20547;-74
2023/06/30 10:44:14;;;;;;;4.80;1.67;;;21.10;99.90;;;;;;5086525;28;20461;-73
2023/06/30 10:46:53;;;;;;;3.88;1.75;;;;;;;;;;5087559;28;20425;-73
2023/06/30 10:49:20;;;;;;;4.10;1.60;;;;;;;;;;5076536;28;20434;-73
2023/06/30 10:51:54;;;;;;;4.68;2.00;;;;;;;;;;5085882;28;20936;-73
2023/06/30 10:54:27;;;;;;;6.40;1.88;;;;;;;;;;5079304;28;20423;-73
2023/06/30 10:57:05;;;;;;;4.60;1.70;;;;;;;;;;5077856;28;20414;-73
2023/06/30 10:59:39;;;;;;;3.85;1.90;;;;;;;;;;5079763;28;20781;-73
2023/06/30 11:02:17;;;;;;;4.50;1.90;;;;;;;;;;5089040;28;20414;-73
2023/06/30 11:04:44;;;;;;;5.57;1.80;;;21.30;99.90;;;;;;5073299;28;20453;-73
2023/06/30 11:07:11;;;;;;;6.53;1.90;;;;;;;;;;5089356;28;20437;-73
2023/06/30 11:09:49;;;;;;;6.45;1.67;;;;;;;;;;5087366;28;20929;-73
2023/06/30 11:12:20;;;;;;;6.65;1.70;;;21.40;99.90;;;;;;5090433;28;20468;-73
2023/06/30 11:14:59;;;;;;;4.03;1.60;;;21.80;99.80;;;;;;5090083;28;20417;-73
2023/06/30 11:17:26;;;;;;;4.23;1.60;;;;;;;;;;5080967;28;20793;-73
2023/06/30 11:20:12;;;;;;;5.13;1.95;;;22.50;98.20;;;;;;5079585;28;20415;-73
2023/06/30 11:22:39;;;;;;;5.47;1.70;;;22.40;97.10;;;;;;5082816;28;20406;-73
2023/06/30 11:25:11;;;;;;;3.80;1.80;;;;;;;;;;5062798;28;20421;-73
2023/06/30 11:27:40;;;;;;;3.55;1.75;;;;;;;;;;5091620;28;20803;-73
2023/06/30 11:30:10;;;;;;;3.50;1.70;;;;;;;;;;5070106;28;20425;-74
2023/06/30 11:32:37;;;;;;;5.57;1.70;;;;;;;;;;5080875;28;20422;-73
2023/06/30 11:35:07;;;;;;;3.72;1.58;;;22.20;96.20;;;;;;5089300;28;20482;-73
2023/06/30 11:37:36;;;;;;;5.63;1.55;;;;;;;;;;5083792;28;20425;-73
2023/06/30 11:40:06;;;;;;;7.87;1.50;;;22.50;96.00;;;;;;5068251;28;20901;-73
2023/06/30 11:42:37;;;;;;;3.50;1.60;;;22.60;96.00;;;;;;5085019;28;20960;-74
2023/06/30 11:45:05;;;;;;;4.23;1.80;;;;;;;;;;5068375;28;20430;-72
2023/06/30 11:47:55;;;;;;;4.63;1.80;;;;;;;;;;5082180;28;20428;-73
2023/06/30 11:50:21;;;;;;;5.10;1.50;;;;;;;;;;5039166;28;20428;-74
2023/06/30 11:52:47;;;;;;;3.15;1.40;;;;;;;;;;5060972;28;20420;-73
2023/06/30 11:55:14;;;;;;;3.90;1.50;;;;;;;;;;5071418;28;20441;-74
2023/06/30 11:57:42;;;;;;;4.73;1.80;;;23.60;95.30;;;;;;5085680;28;20920;-74
2023/06/30 12:00:12;;;;;;;4.00;1.70;;;;;;;;;;5082653;28;20424;-73
2023/06/30 12:02:42;;;;;;;4.10;1.77;;;;;;;;;;5088373;28;20428;-74
2023/06/30 12:05:18;;;;;;;3.95;1.42;;;23.60;94.00;;;;;;5089071;28;20449;-74
2023/06/30 12:07:48;;;;;;;4.07;1.60;;;23.60;94.50;;;;;;5071704;28;20418;-74
2023/06/30 12:10:14;;;;;;;4.93;1.60;;;;;;;;;;5078600;28;20912;-74
2023/06/30 12:12:41;;;;;;;5.03;1.63;;;;;;;;;;5082889;28;20457;-73
2023/06/30 12:15:12;;;;;;;5.20;1.95;;;23.10;95.00;;;;;;5081325;28;20877;-75
2023/06/30 12:17:40;;;;;;;5.05;1.77;;;;;;;;;;5085387;28;20923;-74
2023/06/30 12:20:07;;;;;;;3.60;1.60;;;22.70;95.20;;;;;;5085549;28;20893;-74
2023/06/30 12:22:36;;;;;;;4.35;1.80;;;22.70;95.70;;;;;;5063848;28;20418;-74
2023/06/30 12:25:07;;;;;;;3.88;1.63;;;;;;;;;;5087894;28;20446;-74
2023/06/30 12:27:35;;;;;;;5.22;2.10;;;22.80;95.60;;;;;;5069331;28;20426;-73
2023/06/30 12:30:01;;;;;;;4.80;1.60;;;23.10;95.30;;;;;;5076176;28;20998;-73
2023/06/30 12:32:27;;;;;;;5.32;1.88;;;;;;;;;;5075479;28;20406;-73
2023/06/30 12:35:03;;;;;;;5.53;1.83;;;23.40;94.30;;;;;;5091260;28;20457;-72
2023/06/30 12:37:30;;;;;;;4.30;1.90;;;;;;;;;;5076712;28;20883;-72
2023/06/30 12:39:59;;;;;;;5.90;2.30;;;;;;;;;;5089645;28;20973;-73
2023/06/30 12:42:28;;;;;;;6.85;2.08;;;24.40;94.80;;;;;;5091178;28;20471;-73
2023/06/30 12:44:54;;;;;;;5.63;2.10;;;;;;;;;;5081670;28;20912;-72
2023/06/30 12:47:20;;;;;;;4.37;1.90;;;24.60;94.90;;;;;;5087119;28;20427;-72
2023/06/30 12:49:46;;;;;;;4.82;2.20;;;24.80;94.30;;;;;;5092292;28;20509;-72
2023/06/30 12:52:11;;;;;;;4.43;2.10;;;24.70;94.30;;;;;;5089768;28;20943;-73
2023/06/30 12:54:37;;;;;;;6.10;2.60;;;24.40;93.60;;;;;;5065077;28;20433;-73
2023/06/30 12:57:03;;;;;;;7.50;2.85;;;24.00;94.20;;;;;;5089022;28;20421;-76
2023/06/30 12:59:29;;;;;;;5.93;2.20;;;;;;;;;;5070015;28;20930;-73
2023/06/30 13:01:55;;;;;;;5.97;2.08;;;23.80;95.20;;;;;;5087521;28;20495;-71
2023/06/30 13:04:21;;;;;;;5.57;2.20;;;;;;;;;;5070666;28;20889;-71
2023/06/30 13:06:46;;;;;;;4.05;1.88;;;24.10;94.70;;;;;;5072996;28;20429;-72
2023/06/30 13:09:12;;;;;;;5.75;2.20;;;24.20;94.50;;;;;;5072022;28;20425;-71
2023/06/30 13:11:38;;;;;;;4.55;2.22;;;;;;;;;;5091018;28;20518;-72
2023/06/30 13:14:04;;;;;;;4.63;1.92;;;24.40;94.40;;;;;;5091276;28;20398;-73
2023/06/30 13:16:31;;;;;;;5.73;2.30;;;;;;;;;;5082726;28;20416;-73
2023/06/30 13:18:57;;;;;;;4.53;2.22;;;24.70;93.90;;;;;;5088769;28;20504;-73
2023/06/30 13:21:23;;;;;;;6.47;2.20;;;24.80;93.10;;;;;;5084699;28;20429;-74
2023/06/30 13:23:49;;;;;;;5.88;2.25;;;25.10;93.40;;;;;;5088169;28;20414;-74
2023/06/30 13:26:15;;;;;;;4.57;2.15;;;24.90;92.90;;;;;;5065166;28;20887;-73
2023/06/30 13:28:41;;;;;;;6.25;1.85;;;24.90;93.50;;;;;;5078579;28;20410;-74
2023/06/30 13:31:07;;;;;;;3.72;1.80;;;;;;;;;;5074556;28;20928;-74
2023/06/30 13:33:33;;;;;;;5.15;2.10;;;25.20;92.60;;;;;;5089314;28;20747;-74
2023/06/30 13:36:00;;;;;;;5.78;2.05;;;25.40;92.00;;;;;;5066819;28;20449;-74
2023/06/30 13:38:26;;;;;;;4.40;2.00;;;25.30;91.30;;;;;;5089072;28;20418;-74
2023/06/30 13:40:52;;;;;;;6.53;2.10;;;25.60;91.60;;;;;;5072964;28;20398;-74
2023/06/30 13:43:18;;;;;;;4.40;1.88;;;25.60;91.60;;;;;;5071321;28;20391;-74
2023/06/30 13:45:44;;;;;;;4.15;1.90;;;25.80;91.40;;;;;;5103561;28;20919;-74
2023/06/30 13:48:09;;;;;;;4.65;2.08;;;25.70;91.50;;;;;;5070251;28;20502;-74
2023/06/30 13:50:36;;;;;;;4.15;1.80;;;;;;;;;;5091365;28;20865;-74
2023/06/30 13:53:01;;;;;;;3.90;1.92;;;25.50;90.70;;;;;;5074017;28;20445;-74
2023/06/30 13:55:27;;;;;;;7.10;2.00;;;;;;;;;;5074985;28;20441;-74
2023/06/30 13:57:53;;;;;;;5.55;1.88;;;25.20;91.70;;;;;;5091187;28;20426;-74
2023/06/30 14:00:20;;;;;;;4.50;2.00;;;25.00;91.30;;;;;;5091926;28;20397;-74